Latest Coastal Weather Observations for Port Fairy

IDV60701

Issued at 12:55 pm EDT Wednesday 22 October 2014 (issued every 10 minutes, with the page automatically refreshed every 10 minutes)

About coastal observations | Map of coastal stations | Coastal observations for VIC | Marine services | Other Formats
Station Details ID: 090175 Name: PORT FAIRY AWS Lat: -38.39 Lon: 142.23 Height: 10.0 m
Data from the previous 72 hours. | See also: Recent months at Port Fairy
Date/Time
EDT
Temp

°C
Wind Pressure Rain
since 9am
mm
Weather Cloud Vis
km
Sea
Height
m
Swell
Dir
 
Speed
knots
Gust
knots
hPa Trend Height
m
Period
s
Dir
22/12:30pm 23.4 S 1 3 1016.5 - 0.0 - - - - - - -
22/12:00pm 20.6 S 4 6 1016.9 - 0.0 - - - - - - -
22/11:30am 23.4 ESE 2 6 1016.5 - 0.0 - - - - - - -
22/11:00am 21.1 ENE 4 7 1016.7 - 0.0 - - - - - - -
22/10:30am 19.8 ENE 3 6 1017.0 - 0.0 - - - - - - -
22/10:00am 19.4 ENE 2 4 1017.5 - 0.0 - - - - - - -
22/09:30am 18.9 ENE 4 7 1017.4 - 0.0 - - - - - - -
22/09:00am 18.2 ENE 3 5 1017.3 - 0.0 - - - - - - -
22/08:30am 18.8 E 3 4 1017.3 - 0.0 - - - - - - -
22/08:00am 16.8 SSE 1 3 1017.3 - 0.0 - - - - - - -
22/07:30am 15.2 NNE 2 4 1016.8 - 0.0 - - - - - - -
22/07:00am 13.1 E 2 5 1017.1 - 0.0 - - - - - - -
22/06:30am 13.6 NW 2 5 1016.9 - 0.0 - - - - - - -
22/06:00am 14.9 ENE 2 4 1016.7 - 0.0 - - - - - - -
22/05:30am 14.8 ESE 2 4 1016.5 - 0.0 - - - - - - -
22/05:00am 15.2 N 7 9 1016.3 - 0.0 - - - - - - -
22/04:30am 15.1 NNE 5 7 1016.4 - 0.0 - - - - - - -
22/04:00am 15.4 NNE 7 10 1016.3 - 0.0 - - - - - - -
22/03:30am 14.6 NE 8 9 1016.4 - 0.0 - - - - - - -
22/03:00am 14.7 NNE 7 9 1017.0 - 0.0 - - - - - - -
22/02:30am 14.8 NNE 7 9 1017.5 - 0.0 - - - - - - -
22/02:00am 14.9 NNE 8 10 1017.9 - 0.0 - - - - - - -
22/01:30am 15.0 NNE 7 10 1018.3 - 0.0 - - - - - - -
22/01:00am 15.4 NNE 8 11 1018.7 - 0.0 - - - - - - -
22/12:30am 15.8 NNE 8 12 1019.2 - 0.0 - - - - - - -
22/12:00am 15.6 NNE 6 9 1019.4 - 0.0 - - - - - - -
 
Date/Time
EDT
Temp

°C
Wind Pressure Rain
since 9am
mm
Weather Cloud Vis
km
Sea
Height
m
Swell
Dir
 
Speed
knots
Gust
knots
hPa Trend Height
m
Period
s
Dir
21/11:30pm 15.5 NNE 6 8 1019.8 - 0.0 - - - - - - -
21/11:00pm 15.4 NE 4 5 1020.2 - 0.0 - - - - - - -
21/10:30pm 16.0 ENE 6 8 1020.5 - 0.0 - - - - - - -
21/10:00pm 15.6 ENE 5 7 1020.6 - 0.0 - - - - - - -
21/09:30pm 15.5 E 4 5 1020.8 - 0.0 - - - - - - -
21/09:00pm 15.4 E 6 10 1020.4 - 0.0 - - - - - - -
21/08:30pm 15.3 E 6 8 1020.6 - 0.0 - - - - - - -
21/08:00pm 15.6 E 5 8 1020.7 - 0.0 - - - - - - -
21/07:30pm 16.0 E 7 10 1020.7 - 0.0 - - - - - - -
21/07:00pm 16.7 E 7 10 1020.8 - 0.0 - - - - - - -
21/06:30pm 17.1 ESE 7 12 1020.9 - 0.0 - - - - - - -
21/06:00pm 17.6 ESE 9 15 1021.1 - 0.0 - - - - - - -
21/05:30pm 18.6 ESE 9 14 1021.2 - 0.0 - - - - - - -
21/05:00pm 18.1 ESE 9 13 1021.7 - 0.0 - - - - - - -
21/04:30pm 17.8 ESE 10 13 1021.8 - 0.0 - - - - - - -
21/04:00pm 18.4 SE 10 14 1021.9 - 0.0 - - - - - - -
21/03:30pm 18.6 SE 9 12 1022.2 - 0.0 - - - - - - -
21/03:00pm 18.9 SE 8 11 1022.8 - 0.0 - - - - - - -
21/02:30pm 19.0 SE 8 11 1023.0 - 0.0 - - - - - - -
21/02:00pm 19.0 SE 9 11 1023.5 - 0.0 - - - - - - -
21/01:30pm 19.7 SE 7 10 1023.7 - 0.0 - - - - - - -
21/01:00pm 19.2 SE 7 9 1023.9 - 0.0 - - - - - - -
21/12:30pm 20.9 ESE 6 8 1024.1 - 0.0 - - - - - - -
21/12:00pm 19.1 ESE 7 8 1024.6 - 0.0 - - - - - - -
21/11:30am 19.0 E 5 8 1024.9 - 0.0 - - - - - - -
21/11:00am 18.1 ENE 5 9 1025.1 - 0.0 - - - - - - -
21/10:30am 16.2 E 7 10 1025.2 - 0.0 - - - - - - -
21/10:00am 14.9 ENE 7 12 1025.5 - 0.0 - - - - - - -
21/09:30am 13.0 ENE 7 11 1025.5 - 0.0 - - - - - - -
21/09:00am 12.1 ENE 6 11 1025.7 - 0.0 - - - - - - -
21/08:30am 11.1 ENE 8 13 1025.7 - 0.0 - - - - - - -
21/08:00am 10.3 ENE 7 10 1025.7 - 0.0 - - - - - - -
21/07:30am 10.2 NE 8 12 1025.4 - 0.0 - - - - - - -
21/07:00am 10.3 ENE 10 16 1025.3 - 0.0 - - - - - - -
21/06:30am 9.9 ENE 7 13 1025.2 - 0.0 - - - - - - -
21/06:00am 9.8 ENE 7 10 1025.1 - 0.0 - - - - - - -
21/05:30am 9.9 ENE 6 10 1025.3 - 0.0 - - - - - - -
21/05:00am 9.9 ENE 5 8 1025.5 - 0.0 - - - - - - -
21/04:30am 9.8 ENE 5 8 1025.7 - 0.0 - - - - - - -
21/04:00am 10.0 ENE 5 10 1025.8 - 0.0 - - - - - - -
21/03:30am 10.2 ENE 5 8 1026.0 - 0.0 - - - - - - -
21/03:00am 10.6 ENE 9 15 1026.0 - 0.0 - - - - - - -
21/02:30am 11.0 ENE 11 16 1026.2 - 0.0 - - - - - - -
21/02:00am 11.6 E 11 17 1026.7 - 0.0 - - - - - - -
21/01:30am 11.9 E 11 20 1027.2 - 0.0 - - - - - - -
21/01:00am 12.0 E 11 22 1027.5 - 0.0 - - - - - - -
21/12:30am 12.2 E 11 16 1027.7 - 0.0 - - - - - - -
21/12:00am 12.1 E 11 17 1028.0 - 0.0 - - - - - - -
 
Date/Time
EDT
Temp

°C
Wind Pressure Rain
since 9am
mm
Weather Cloud Vis
km
Sea
Height
m
Swell
Dir
 
Speed
knots
Gust
knots
hPa Trend Height
m
Period
s
Dir
20/11:30pm 12.0 E 11 16 1028.1 - 0.0 - - - - - - -
20/11:00pm 12.0 E 11 15 1028.3 - 0.0 - - - - - - -
20/10:30pm 11.8 E 11 16 1028.5 - 0.0 - - - - - - -
20/10:00pm 11.9 E 11 15 1028.5 - 0.0 - - - - - - -
20/09:30pm 12.6 E 12 17 1028.5 - 0.0 - - - - - - -
20/09:00pm 12.9 E 13 20 1028.2 - 0.0 - - - - - - -
20/08:30pm 13.2 ESE 15 22 1027.8 - 0.0 - - - - - - -
20/08:13pm 13.3 ESE 15 25 1027.6 - 0.0 - - - - - - -
20/08:00pm 13.0 ESE 16 24 1027.6 - 0.0 - - - - - - -
20/07:30pm 13.4 ESE 16 22 1027.6 - 0.0 - - - - - - -
20/07:00pm 13.6 ESE 17 25 1027.4 - 0.0 - - - - - - -
20/06:30pm 14.0 SE 18 25 1027.5 - 0.0 - - - - - - -
20/06:00pm 14.4 SE 18 24 1027.9 - 0.0 - - - - - - -
20/05:30pm 14.8 ESE 18 24 1028.0 - 0.0 - - - - - - -
20/05:00pm 14.7 SE 18 24 1028.5 - 0.0 - - - - - - -
20/04:30pm 14.9 SE 18 24 1028.8 - 0.0 - - - - - - -
20/04:00pm 14.8 SE 19 25 1028.7 - 0.0 - - - - - - -
20/03:30pm 14.8 SE 19 27 1028.9 - 0.0 - - - - - - -
20/03:00pm 14.9 SE 19 27 1029.2 - 0.0 - - - - - - -
20/02:30pm 15.4 SE 18 25 1029.5 - 0.0 - - - - - - -
20/02:00pm 15.0 SE 18 23 1029.9 - 0.0 - - - - - - -
20/01:30pm 15.3 ESE 16 24 1030.2 - 0.0 - - - - - - -
20/01:00pm 15.1 SE 18 24 1030.1 - 0.0 - - - - - - -
20/12:30pm 15.0 SE 15 21 1030.6 - 0.0 - - - - - - -
20/12:00pm 14.6 ESE 16 22 1031.1 - 0.0 - - - - - - -
20/11:30am 14.2 ESE 15 22 1031.4 - 0.0 - - - - - - -
20/11:00am 14.3 E 13 20 1031.6 - 0.0 - - - - - - -
20/10:30am 13.9 E 14 21 1031.3 - 0.0 - - - - - - -
20/10:00am 13.5 E 15 23 1031.5 - 0.0 - - - - - - -
20/09:30am 13.5 E 12 20 1031.4 - 0.0 - - - - - - -
20/09:00am 12.9 E 14 21 1031.4 - 0.0 - - - - - - -
20/08:30am 12.5 ESE 14 20 1031.0 - 0.0 - - - - - - -
20/08:00am 12.0 E 15 22 1030.5 - 0.0 - - - - - - -
20/07:30am 11.6 E 13 19 1030.4 - 0.0 - - - - - - -
20/07:00am 10.8 E 11 16 1030.2 - 0.0 - - - - - - -
20/06:30am 10.8 E 10 16 1030.0 - 0.0 - - - - - - -
20/06:00am 11.1 E 10 15 1029.7 - 0.0 - - - - - - -
20/05:30am 11.5 ESE 12 21 1029.5 - 0.0 - - - - - - -
20/05:00am 11.6 ESE 14 19 1029.0 - 0.0 - - - - - - -
20/04:30am 11.8 ESE 14 20 1029.0 - 0.0 - - - - - - -
20/04:00am 11.7 ESE 9 14 1028.9 - 0.0 - - - - - - -
20/03:30am 11.9 SE 16 21 1029.0 - 0.0 - - - - - - -
20/03:00am 11.4 SE 15 21 1029.2 - 0.0 - - - - - - -
20/02:30am 12.1 SE 17 22 1029.2 - 0.0 - - - - - - -
20/02:00am 11.9 ESE 11 16 1029.3 - 0.0 - - - - - - -
20/01:30am 11.5 ESE 13 17 1029.4 - 0.0 - - - - - - -
20/01:00am 11.8 SE 15 22 1029.7 - 0.0 - - - - - - -
20/12:30am 12.2 SE 15 19 1029.7 - 0.0 - - - - - - -
20/12:00am 12.1 SE 16 21 1029.5 - 0.0 - - - - - - -
 
Date/Time
EDT
Temp

°C
Wind Pressure Rain
since 9am
mm
Weather Cloud Vis
km
Sea
Height
m
Swell
Dir
 
Speed
knots
Gust
knots
hPa Trend Height
m
Period
s
Dir
19/11:30pm 12.3 SE 14 18 1029.4 - 0.0 - - - - - - -
19/11:00pm 12.2 SSE 16 21 1029.2 - 0.0 - - - - - - -
19/10:30pm 11.7 SE 16 20 1029.0 - 0.0 - - - - - - -
19/10:00pm 11.7 SSE 18 22 1029.1 - 0.0 - - - - - - -
19/09:30pm 12.4 SSE 16 21 1028.7 - 0.0 - - - - - - -
19/09:00pm 12.2 SSE 17 23 1028.3 - 0.0 - - - - - - -
19/08:30pm 12.7 S 15 20 1027.9 - 0.0 - - - - - - -
19/08:00pm 12.6 S 15 19 1027.3 - 0.0 - - - - - - -
19/07:30pm 12.9 S 14 19 1026.8 - 0.0 - - - - - - -
19/07:00pm 13.5 S 16 22 1025.9 - 0.0 - - - - - - -
19/06:30pm 13.9 S 14 20 1025.0 - 0.0 - - - - - - -
19/06:00pm 14.3 S 12 16 1024.4 - 0.0 - - - - - - -
19/05:30pm 14.9 S 8 12 1024.4 - 0.0 - - - - - - -
19/05:00pm 14.6 S 11 14 1024.1 - 0.0 - - - - - - -
19/04:30pm 14.7 SSW 8 11 1023.6 - 0.0 - - - - - - -
19/04:00pm 14.8 SSW 12 16 1023.7 - 0.0 - - - - - - -
19/03:30pm 15.7 SSW 8 14 1023.4 - 0.0 - - - - - - -
19/03:00pm 15.3 S 7 9 1022.4 - 0.0 - - - - - - -
19/02:30pm 15.4 SSW 7 10 1022.6 - 0.0 - - - - - - -
19/02:00pm 15.6 S 6 9 1021.9 - 0.0 - - - - - - -
19/01:30pm 14.9 S 10 14 1022.1 - 0.0 - - - - - - -
19/01:00pm 16.0 S 8 13 1021.6 - 0.0 - - - - - - -

Other Formats:

Comma delimited format used in spreadsheet applications
http://www.bom.gov.au/fwo/IDV60701/IDV60701.94830.axf

JavaScript Object Notation format (JSON) in row-major order
http://www.bom.gov.au/fwo/IDV60701/IDV60701.94830.json